createdAt,value
2018-02-15T00:01:53.327Z,97313.31
2018-02-15T00:04:25.836Z,97298.20
2018-02-15T00:06:54.627Z,97305.78
2018-02-15T00:09:28.495Z,97298.11
2018-02-15T00:11:58.891Z,97295.66
2018-02-15T00:14:28.961Z,97295.59
2018-02-15T00:17:01.383Z,97294.09
2018-02-15T00:19:30.719Z,97293.28
2018-02-15T00:21:59.202Z,97291.20
2018-02-15T00:24:29.451Z,97283.87
2018-02-15T00:27:00.427Z,97279.52
2018-02-15T00:29:28.952Z,97281.45
2018-02-15T00:31:59.382Z,97277.77
2018-02-15T00:34:29.717Z,97272.08
2018-02-15T00:37:03.307Z,97270.51
2018-02-15T00:39:33.493Z,97269.70
2018-02-15T00:42:02.180Z,97270.04
2018-02-15T00:44:30.618Z,97264.58
2018-02-15T00:46:59.558Z,97260.94
2018-02-15T00:49:29.801Z,97263.78
2018-02-15T00:51:59.240Z,97264.55
2018-02-15T00:54:30.492Z,97265.78
2018-02-15T00:56:58.943Z,97269.77
2018-02-15T00:59:27.542Z,97271.34
2018-02-15T01:01:56.326Z,97275.53
2018-02-15T01:04:25.027Z,97271.01
2018-02-15T01:06:53.713Z,97281.92
2018-02-15T01:09:22.290Z,97291.37
2018-02-15T01:11:50.850Z,97290.06
2018-02-15T01:14:20.395Z,97288.77
2018-02-15T01:16:49.185Z,97286.28
2018-02-15T01:19:24.022Z,97292.64
2018-02-15T01:21:54.412Z,97292.04
2018-02-15T01:24:30.292Z,97288.13
2018-02-15T01:26:58.836Z,97293.38
2018-02-15T01:29:27.365Z,97278.31
2018-02-15T01:31:56.999Z,97277.01
2018-02-15T01:34:27.289Z,97272.05
2018-02-15T01:37:00.608Z,97269.17
2018-02-15T01:39:29.900Z,97270.34
2018-02-15T01:42:00.162Z,97278.64
2018-02-15T01:44:28.732Z,97288.14
2018-02-15T01:47:00.153Z,97283.59
2018-02-15T01:49:29.357Z,97285.98
2018-02-15T01:51:59.664Z,97288.56
2018-02-15T01:54:30.731Z,97287.15
2018-02-15T01:57:00.995Z,97280.16
2018-02-15T01:59:32.293Z,97279.95
2018-02-15T02:02:04.657Z,97270.03
2018-02-15T02:04:40.417Z,97279.30
2018-02-15T02:07:11.208Z,97262.44
2018-02-15T02:09:42.392Z,97253.12
2018-02-15T02:12:16.082Z,97255.56
2018-02-15T02:14:45.524Z,97257.23
2018-02-15T02:17:18.084Z,97255.89
2018-02-15T02:19:46.578Z,97255.16
2018-02-15T02:22:17.878Z,97268.69
2018-02-15T02:24:46.510Z,97269.94
2018-02-15T02:27:14.988Z,97268.27
2018-02-15T02:29:43.792Z,97269.64
2018-02-15T02:32:26.286Z,97268.94
2018-02-15T02:34:54.778Z,97267.39
2018-02-15T02:37:26.566Z,97267.45
2018-02-15T02:39:55.320Z,97259.39
2018-02-15T02:42:39.693Z,97250.55
2018-02-15T02:45:10.896Z,97235.05
2018-02-15T02:47:39.478Z,97234.17
2018-02-15T02:50:07.981Z,97235.14
2018-02-15T02:52:38.192Z,97239.42
2018-02-15T02:55:07.712Z,97245.48
2018-02-15T02:57:37.741Z,97242.03
2018-02-15T03:00:08.624Z,97233.87
2018-02-15T03:02:39.305Z,97239.12
2018-02-15T03:05:08.887Z,97241.61
2018-02-15T03:07:40.763Z,97238.90
2018-02-15T03:10:09.443Z,97230.67
2018-02-15T03:12:37.954Z,97234.05
2018-02-15T03:15:06.534Z,97230.63
2018-02-15T03:17:35.219Z,97232.00
2018-02-15T03:20:05.521Z,97229.42
2018-02-15T03:22:35.051Z,97233.31
2018-02-15T03:25:05.375Z,97228.16
2018-02-15T03:27:38.925Z,97223.53
2018-02-15T03:30:07.449Z,97224.88
2018-02-15T03:32:35.935Z,97224.91
2018-02-15T03:35:04.419Z,97219.02
2018-02-15T03:40:19.099Z,97219.85
2018-02-15T03:42:49.323Z,97224.38
2018-02-15T03:45:28.967Z,97221.16
2018-02-15T03:47:59.162Z,97216.23
2018-02-15T03:50:27.875Z,97210.48
2018-02-15T03:53:00.063Z,97205.33
2018-02-15T03:55:31.895Z,97198.09
2018-02-15T03:58:00.377Z,97200.67
2018-02-15T04:00:30.462Z,97206.50
2018-02-15T04:02:59.075Z,97208.34
2018-02-15T04:05:27.586Z,97201.74
2018-02-15T04:07:57.837Z,97199.00
2018-02-15T04:10:27.411Z,97197.02
2018-02-15T04:12:58.417Z,97199.27
2018-02-15T04:15:28.654Z,97205.39
2018-02-15T04:17:58.983Z,97206.09
2018-02-15T04:20:28.409Z,97217.94
2018-02-15T04:22:58.620Z,97220.88
2018-02-15T04:25:27.366Z,97227.61
2018-02-15T04:27:57.612Z,97227.23
2018-02-15T04:30:28.597Z,97223.19
2018-02-15T04:33:06.895Z,97213.98
2018-02-15T04:35:37.159Z,97214.42
2018-02-15T04:38:07.959Z,97207.42
2018-02-15T04:40:36.434Z,97204.14
2018-02-15T04:43:04.909Z,97207.05
2018-02-15T04:45:41.752Z,97208.92
2018-02-15T04:48:12.229Z,97200.73
2018-02-15T04:50:43.340Z,97204.45
2018-02-15T04:53:20.654Z,97199.02
2018-02-15T04:55:52.309Z,97187.70
2018-02-15T04:58:22.597Z,97191.39
2018-02-15T05:00:52.041Z,97192.20
2018-02-15T05:03:22.381Z,97184.70
2018-02-15T05:05:54.869Z,97178.76
2018-02-15T05:08:29.975Z,97175.48
2018-02-15T05:10:58.415Z,97163.02
2018-02-15T05:13:26.951Z,97136.89
2018-02-15T05:15:55.417Z,97118.50
2018-02-15T05:18:29.230Z,97123.71
2018-02-15T05:21:04.007Z,97132.89
2018-02-15T05:23:36.965Z,97134.59
2018-02-15T05:26:05.636Z,97134.28
2018-02-15T05:28:34.171Z,97135.99
2018-02-15T06:05:26.014Z,97208.23
2018-02-15T06:07:54.515Z,97204.77
2018-02-15T06:10:25.048Z,97223.88
2018-02-15T06:12:53.634Z,97215.47
2018-02-15T06:15:23.712Z,97214.69
2018-02-15T06:17:53.997Z,97215.11
2018-02-15T06:20:24.997Z,97212.59
2018-02-15T06:22:53.599Z,97209.27
2018-02-15T06:25:22.075Z,97204.16
2018-02-15T06:27:50.577Z,97201.25
2018-02-15T06:30:19.040Z,97197.50
2018-02-15T06:32:47.734Z,97195.56
2018-02-15T06:35:17.057Z,97190.94
2018-02-15T06:37:47.509Z,97183.50
2018-02-15T06:40:18.502Z,97176.16
2018-02-15T06:42:48.807Z,97171.97
2018-02-15T06:45:19.970Z,97170.41
2018-02-15T06:47:50.999Z,97188.47
2018-02-15T06:50:20.255Z,97179.00
2018-02-15T06:52:51.421Z,97177.92
2018-02-15T06:55:27.642Z,97182.75
2018-02-15T06:57:56.135Z,97179.90
2018-02-15T07:00:26.535Z,97176.94
2018-02-15T07:02:57.596Z,97177.99
2018-02-15T07:05:26.930Z,97177.31
2018-02-15T07:07:55.484Z,97173.86
2018-02-15T07:10:26.256Z,97179.70
2018-02-15T07:12:57.662Z,97187.30
2018-02-15T07:15:28.120Z,97183.39
2018-02-15T07:17:59.337Z,97177.84
2018-02-15T07:20:30.052Z,97164.81
2018-02-15T07:23:00.384Z,97187.19
2018-02-15T07:25:33.082Z,97184.80
2018-02-15T07:28:05.505Z,97186.07
2018-02-15T07:30:34.770Z,97180.70
2018-02-15T07:33:03.230Z,97178.84
2018-02-15T07:35:33.406Z,97181.89
2018-02-15T07:38:02.189Z,97179.09
2018-02-15T07:40:32.313Z,97164.52
2018-02-15T07:43:02.560Z,97170.81
2018-02-15T07:45:32.115Z,97166.10
2018-02-15T07:48:01.452Z,97165.82
2018-02-15T07:50:30.000Z,97157.98
2018-02-15T07:52:58.478Z,97143.33
2018-02-15T07:55:26.964Z,97143.60
2018-02-15T07:57:57.298Z,97154.37
2018-02-15T08:00:26.704Z,97160.76
2018-02-15T08:02:55.187Z,97169.41
2018-02-15T08:05:23.748Z,97162.92
2018-02-15T08:07:54.050Z,97157.45
2018-02-15T08:10:26.369Z,97156.45
2018-02-15T08:12:57.494Z,97158.31
2018-02-15T08:15:28.262Z,97158.77
2018-02-15T08:17:58.544Z,97155.39
2018-02-15T08:20:29.969Z,97156.84
2018-02-15T08:23:02.529Z,97177.60
2018-02-15T08:25:32.834Z,97192.12
2018-02-15T08:28:04.430Z,97199.53
2018-02-15T08:30:33.282Z,97202.33
2018-02-15T08:33:02.646Z,97197.92
2018-02-15T08:35:31.172Z,97198.94
2018-02-15T08:37:59.753Z,97186.27
2018-02-15T08:40:28.506Z,97185.34
2018-02-15T08:42:59.012Z,97189.69
2018-02-15T08:45:28.285Z,97191.34
2018-02-15T08:47:59.005Z,97196.27
2018-02-15T08:50:29.280Z,97195.63
2018-02-15T08:52:59.550Z,97189.72
2018-02-15T08:55:30.599Z,97193.63
2018-02-15T08:58:00.780Z,97193.71
2018-02-15T09:00:31.096Z,97191.27
2018-02-15T09:03:03.806Z,97201.23
2018-02-15T09:05:35.833Z,97189.83
2018-02-15T09:08:04.586Z,97197.95
2018-02-15T09:10:33.273Z,97198.03
2018-02-15T09:13:11.405Z,97200.84
2018-02-15T09:15:42.541Z,97205.11
2018-02-15T09:18:11.216Z,97202.48
2018-02-15T09:20:46.248Z,97203.87
2018-02-15T09:23:30.790Z,97204.24
2018-02-15T09:25:59.698Z,97196.13
2018-02-15T09:28:28.183Z,97191.56
2018-02-15T09:30:56.614Z,97190.00
2018-02-15T09:33:25.241Z,97183.95
2018-02-15T09:35:54.764Z,97178.39
2018-02-15T09:38:26.791Z,97177.20
2018-02-15T09:40:55.303Z,97177.52
2018-02-15T09:43:28.649Z,97183.95
2018-02-15T09:45:57.999Z,97182.42
2018-02-15T09:48:32.330Z,97189.66
2018-02-15T09:51:02.624Z,97187.16
2018-02-15T09:53:32.255Z,97186.00
2018-02-15T09:56:06.706Z,97185.84
2018-02-15T09:58:36.883Z,97184.47
2018-02-15T10:01:07.170Z,97189.73
2018-02-15T10:03:38.693Z,97189.89
2018-02-15T10:06:11.621Z,97195.46
2018-02-15T10:08:40.239Z,97188.25
2018-02-15T10:11:12.541Z,97190.16
2018-02-15T10:13:43.031Z,97193.80
2018-02-15T10:16:11.680Z,97187.86
2018-02-15T10:18:40.525Z,97179.92
2018-02-15T10:21:09.009Z,97189.67
2018-02-15T10:23:39.408Z,97185.78
2018-02-15T10:26:17.008Z,97186.12
2018-02-15T10:28:48.241Z,97190.95
2018-02-15T10:33:59.042Z,97181.20
2018-02-15T10:36:27.529Z,97179.55
2018-02-15T10:38:57.743Z,97176.16
2018-02-15T10:41:32.762Z,97178.06
2018-02-15T10:44:02.309Z,97177.38
2018-02-15T10:46:32.467Z,97179.00
2018-02-15T10:49:04.766Z,97178.22
2018-02-15T10:51:39.720Z,97175.06
2018-02-15T10:54:08.530Z,97173.77
2018-02-15T10:56:40.593Z,97179.95
2018-02-15T10:59:10.765Z,97174.71
2018-02-15T11:01:45.023Z,97174.60
2018-02-15T11:04:22.227Z,97171.41
2018-02-15T11:06:50.905Z,97170.58
2018-02-15T11:09:23.495Z,97168.73
2018-02-15T11:11:53.695Z,97163.02
2018-02-15T11:14:25.418Z,97164.66
2018-02-15T11:16:57.587Z,97157.16
2018-02-15T11:19:31.951Z,97157.63
2018-02-15T11:22:00.539Z,97162.59
2018-02-15T11:24:29.842Z,97164.22
2018-02-15T11:26:59.982Z,97160.34
2018-02-15T11:29:30.377Z,97156.17
2018-02-15T11:31:59.682Z,97161.73
2018-02-15T11:34:36.102Z,97168.78
2018-02-15T11:37:07.095Z,97174.65
2018-02-15T11:39:36.612Z,97165.53
2018-02-15T11:44:41.542Z,97172.47
2018-02-15T11:49:53.067Z,97176.61
2018-02-15T11:52:25.118Z,97162.61
2018-02-15T11:54:53.929Z,97168.02
2018-02-15T11:57:24.227Z,97170.45
2018-02-15T11:59:56.678Z,97166.23
2018-02-15T12:02:28.888Z,97153.68
2018-02-15T12:04:57.570Z,97160.73
2018-02-15T12:07:32.387Z,97159.69
2018-02-15T12:10:00.987Z,97152.81
2018-02-15T12:12:31.083Z,97151.99
2018-02-15T12:14:59.798Z,97150.36
2018-02-15T12:17:30.142Z,97141.17
2018-02-15T12:20:00.532Z,97143.30
2018-02-15T12:22:31.595Z,97127.61
2018-02-15T12:25:02.745Z,97148.98
2018-02-15T12:27:41.557Z,97143.30
2018-02-15T12:30:24.382Z,97139.12
2018-02-15T12:32:53.087Z,97130.93
2018-02-15T12:35:21.786Z,97134.67
2018-02-15T12:40:29.160Z,97125.63
2018-02-15T12:42:59.459Z,97129.56
2018-02-15T12:45:30.984Z,97125.86
2018-02-15T12:47:59.623Z,97117.63
2018-02-15T12:50:28.082Z,97118.11
2018-02-15T12:52:58.204Z,97116.56
2018-02-15T12:55:26.921Z,97109.18
2018-02-15T12:57:55.622Z,97110.06
2018-02-15T13:00:24.094Z,97117.81
2018-02-15T13:02:54.539Z,97112.06
2018-02-15T13:05:28.577Z,97122.45
2018-02-15T13:07:59.038Z,97119.68
2018-02-15T13:10:30.010Z,97115.30
2018-02-15T13:13:12.174Z,97110.63
2018-02-15T13:15:56.864Z,97122.72
2018-02-15T13:18:39.685Z,97116.67
2018-02-15T13:21:08.222Z,97121.70
2018-02-15T13:23:36.829Z,97129.14
2018-02-15T13:26:05.316Z,97132.55
2018-02-15T13:28:40.315Z,97137.81
2018-02-15T13:31:09.548Z,97130.73
2018-02-15T13:33:38.042Z,97130.86
2018-02-15T13:36:06.617Z,97128.06
2018-02-15T13:38:38.277Z,97138.30
2018-02-15T13:41:10.671Z,97135.74
2018-02-15T13:43:41.278Z,97141.92
2018-02-15T13:46:11.607Z,97131.49
2018-02-15T13:48:43.606Z,97140.56
2018-02-15T13:51:35.284Z,97138.24
2018-02-15T13:54:04.609Z,97133.36
2018-02-15T13:56:34.728Z,97139.05
2018-02-15T13:59:05.446Z,97138.56
2018-02-15T14:01:34.651Z,97142.30
2018-02-15T14:04:04.931Z,97143.86
2018-02-15T14:06:36.040Z,97148.72
2018-02-15T14:09:07.207Z,97147.55
2018-02-15T14:11:48.963Z,97155.98
2018-02-15T14:14:19.239Z,97144.67
2018-02-15T14:16:50.158Z,97153.30
2018-02-15T14:19:19.414Z,97150.16
2018-02-15T14:21:50.668Z,97143.84
2018-02-15T14:24:20.864Z,97139.22
2018-02-15T14:26:51.176Z,97143.04
2018-02-15T14:29:22.022Z,97137.66
2018-02-15T14:31:52.087Z,97140.42
2018-02-15T14:34:31.192Z,97143.42
2018-02-15T14:37:00.388Z,97141.42
2018-02-15T14:39:37.168Z,97144.63
2018-02-15T14:42:07.438Z,97141.56
2018-02-15T14:44:46.537Z,97151.93
2018-02-15T14:47:16.793Z,97157.80
2018-02-15T14:49:47.065Z,97153.99
2018-02-15T14:52:16.668Z,97155.11
2018-02-15T14:54:48.937Z,97150.92
2018-02-15T14:57:17.497Z,97157.41
2018-02-15T14:59:46.017Z,97158.84
2018-02-15T15:02:14.497Z,97159.83
2018-02-15T15:04:46.867Z,97159.73
2018-02-15T15:07:15.456Z,97156.95
2018-02-15T15:09:44.054Z,97151.81
2018-02-15T15:12:12.736Z,97161.67
2018-02-15T15:14:41.423Z,97158.91
2018-02-15T15:17:10.011Z,97155.09
2018-02-15T15:19:38.607Z,97166.92
2018-02-15T15:22:07.282Z,97159.95
2018-02-15T15:24:37.616Z,97162.50
2018-02-15T15:27:08.533Z,97167.56
2018-02-15T15:29:38.637Z,97173.73
2018-02-15T15:38:28.732Z,97174.28
2018-02-15T15:41:02.551Z,97172.47
2018-02-15T15:43:36.200Z,97174.28
2018-02-15T15:46:10.131Z,97180.24
2018-02-15T15:49:55.794Z,97199.62
2018-02-15T15:52:29.534Z,97191.92
2018-02-15T15:54:57.755Z,97189.16
2018-02-15T15:57:26.039Z,97184.53
2018-02-15T15:59:54.272Z,97186.02
2018-02-15T16:02:22.560Z,97185.96
2018-02-15T16:04:50.789Z,97187.56
2018-02-15T16:07:19.030Z,97191.64
2018-02-15T16:09:47.296Z,97196.09
2018-02-15T16:12:15.526Z,97198.17
2018-02-15T16:14:44.432Z,97199.20
2018-02-15T16:17:12.663Z,97200.39
2018-02-15T16:19:40.941Z,97207.55
2018-02-15T16:22:09.867Z,97209.63
2018-02-15T16:24:39.090Z,97208.80
2018-02-15T16:27:07.457Z,97211.23
2018-02-15T16:29:35.730Z,97211.53
2018-02-15T16:32:03.990Z,97209.70
2018-02-15T16:34:32.257Z,97218.67
2018-02-15T16:37:00.503Z,97218.43
2018-02-15T16:39:35.557Z,97211.81
2018-02-15T16:42:03.814Z,97212.93
2018-02-15T16:44:32.179Z,97201.22
2018-02-15T16:47:00.438Z,97202.80
2018-02-15T16:49:29.826Z,97211.91
2018-02-15T16:52:00.523Z,97200.20
2018-02-15T16:54:28.777Z,97194.89
2018-02-15T16:57:00.901Z,97206.92
2018-02-15T16:59:29.190Z,97211.55
2018-02-15T17:01:57.447Z,97210.73
2018-02-15T17:04:25.769Z,97212.34
2018-02-15T17:06:53.997Z,97221.09
2018-02-15T17:09:22.286Z,97218.16
2018-02-15T17:11:50.529Z,97228.94
2018-02-15T17:14:18.875Z,97233.48
2018-02-15T17:16:47.117Z,97221.83
2018-02-15T17:19:15.397Z,97227.63
2018-02-15T17:21:43.658Z,97227.61
2018-02-15T17:24:11.923Z,97223.38
2018-02-15T17:26:40.175Z,97229.72
2018-02-15T17:29:08.413Z,97228.14
2018-02-15T17:31:36.718Z,97229.88
2018-02-15T17:34:04.964Z,97223.36
2018-02-15T17:36:33.260Z,97231.77
2018-02-15T17:39:01.497Z,97236.33
2018-02-15T17:41:29.755Z,97234.70
2018-02-15T17:44:00.861Z,97233.04
2018-02-15T17:46:29.124Z,97231.48
2018-02-15T17:48:57.365Z,97232.81
2018-02-15T17:51:25.651Z,97242.84
2018-02-15T17:53:53.940Z,97242.92
2018-02-15T17:56:24.045Z,97242.92
2018-02-15T17:58:52.307Z,97242.13
2018-02-15T18:01:20.585Z,97242.13
2018-02-15T18:03:48.867Z,97230.53
2018-02-15T18:06:17.115Z,97242.05
2018-02-15T18:08:45.390Z,97239.75
2018-02-15T18:11:13.660Z,97241.83
2018-02-15T18:13:41.936Z,97241.88
2018-02-15T18:16:12.777Z,97238.59
2018-02-15T18:18:41.066Z,97243.66
2018-02-15T18:21:09.321Z,97240.84
2018-02-15T18:23:37.583Z,97236.29
2018-02-15T18:26:05.874Z,97238.38
2018-02-15T18:28:34.144Z,97245.05
2018-02-15T18:31:02.437Z,97249.27
2018-02-15T18:33:30.688Z,97250.11
2018-02-15T18:35:59.313Z,97252.28
2018-02-15T18:38:28.917Z,97248.23
2018-02-15T18:40:57.209Z,97257.34
2018-02-15T18:43:29.306Z,97242.81
2018-02-15T18:45:57.586Z,97243.64
2018-02-15T18:48:25.867Z,97235.41
2018-02-15T18:50:54.170Z,97234.17
2018-02-15T18:53:35.415Z,97234.17
2018-02-15T18:56:03.664Z,97230.48
2018-02-15T18:58:31.989Z,97228.07
2018-02-15T19:01:00.259Z,97229.80
2018-02-15T19:03:28.513Z,97230.26
2018-02-15T19:05:56.874Z,97224.02
2018-02-15T19:08:28.951Z,97222.39
2018-02-15T19:10:57.260Z,97228.33
2018-02-15T19:13:29.426Z,97227.03
2018-02-15T19:15:57.731Z,97226.29
2018-02-15T19:18:25.973Z,97226.34
2018-02-15T19:20:54.336Z,97223.05
2018-02-15T19:23:29.254Z,97224.36
2018-02-15T19:25:57.556Z,97228.98
2018-02-15T19:28:25.847Z,97227.31
2018-02-15T19:30:54.154Z,97231.41
2018-02-15T19:33:22.487Z,97228.98
2018-02-15T19:35:50.809Z,97225.30
2018-02-15T19:38:19.531Z,97226.57
2018-02-15T19:40:54.385Z,97223.72
2018-02-15T19:43:22.730Z,97226.31
2018-02-15T19:45:51.040Z,97222.59
2018-02-15T19:48:19.432Z,97214.24
2018-02-15T19:50:47.760Z,97215.09
2018-02-15T19:53:19.727Z,97221.73
2018-02-15T19:55:48.023Z,97212.72
2018-02-15T19:58:17.967Z,97217.53
2018-02-15T20:00:46.332Z,97208.84
2018-02-15T20:03:14.712Z,97219.28
2018-02-15T20:05:44.029Z,97216.41
2018-02-15T20:08:18.232Z,97216.94
2018-02-15T20:10:46.604Z,97213.20
2018-02-15T20:13:14.925Z,97209.45
2018-02-15T20:15:47.259Z,97200.72
2018-02-15T20:18:18.124Z,97203.70
2018-02-15T20:20:46.488Z,97197.55
2018-02-15T20:23:21.860Z,97194.68
2018-02-15T20:25:55.677Z,97187.63
2018-02-15T20:28:26.557Z,97187.70
2018-02-15T20:30:54.934Z,97187.75
2018-02-15T20:33:23.324Z,97195.69
2018-02-15T20:35:51.707Z,97193.99
2018-02-15T20:38:25.663Z,97198.12
2018-02-15T20:40:53.945Z,97191.93
2018-02-15T20:43:23.896Z,97187.02
2018-02-15T20:45:52.197Z,97210.85
2018-02-15T20:48:20.510Z,97186.72
2018-02-15T20:50:55.126Z,97189.27
2018-02-15T20:53:28.884Z,97195.08
2018-02-15T20:55:57.167Z,97191.79
2018-02-15T20:58:28.750Z,97197.22
2018-02-15T21:00:57.043Z,97191.77
2018-02-15T21:03:25.338Z,97193.52
2018-02-15T21:05:53.642Z,97194.80
2018-02-15T21:08:21.924Z,97194.90
2018-02-15T21:10:50.315Z,97194.41
2018-02-15T21:13:18.606Z,97199.84
2018-02-15T21:15:46.982Z,97197.80
2018-02-15T21:18:15.262Z,97200.73
2018-02-15T21:20:43.568Z,97202.09
2018-02-15T21:23:11.933Z,97204.59
2018-02-15T21:25:40.158Z,97202.48
2018-02-15T21:28:08.601Z,97205.41
2018-02-15T21:30:36.874Z,97207.91
2018-02-15T21:33:05.110Z,97210.41
2018-02-15T21:35:33.415Z,97205.90
2018-02-15T21:38:01.690Z,97207.67
2018-02-15T21:40:29.933Z,97200.26
2018-02-15T21:42:58.512Z,97200.77
2018-02-15T21:45:26.809Z,97195.03
2018-02-15T21:47:55.289Z,97201.27
2018-02-15T21:50:23.573Z,97194.27
2018-02-15T21:52:51.823Z,97192.64
2018-02-15T21:55:20.142Z,97192.58
2018-02-15T21:57:48.382Z,97196.38
2018-02-15T22:00:16.685Z,97195.08
2018-02-15T22:02:44.961Z,97192.94
2018-02-15T22:05:13.226Z,97200.00
2018-02-15T22:07:41.514Z,97193.76
2018-02-15T22:10:10.392Z,97196.64
2018-02-15T22:12:38.687Z,97191.64
2018-02-15T22:15:09.279Z,97189.14
2018-02-15T22:17:37.550Z,97194.95
2018-02-15T22:20:05.802Z,97190.77
2018-02-15T22:22:34.192Z,97186.65
2018-02-15T22:25:02.450Z,97197.50
2018-02-15T22:27:30.716Z,97191.64
2018-02-15T22:29:58.981Z,97190.02
2018-02-15T22:32:35.098Z,97186.58
2018-02-15T22:35:18.271Z,97195.46
2018-02-15T22:37:52.425Z,97190.52
2018-02-15T22:40:20.682Z,97193.40
2018-02-15T22:42:56.766Z,97193.83
2018-02-15T22:45:25.051Z,97190.52
2018-02-15T22:47:53.411Z,97191.78
2018-02-15T22:50:21.696Z,97190.95
2018-02-15T22:52:49.971Z,97193.45
2018-02-15T22:55:18.247Z,97188.45
2018-02-15T22:57:46.537Z,97191.41
2018-02-15T23:00:15.636Z,97190.16
2018-02-15T23:02:43.891Z,97184.73
2018-02-15T23:05:12.189Z,97188.09
2018-02-15T23:07:40.454Z,97183.53
2018-02-15T23:10:08.719Z,97173.49
2018-02-15T23:12:37.005Z,97175.61
2018-02-15T23:15:05.260Z,97171.81
2018-02-15T23:17:46.793Z,97164.32
2018-02-15T23:20:15.126Z,97165.19
2018-02-15T23:22:43.407Z,97156.50
2018-02-15T23:25:11.700Z,97146.03
2018-02-15T23:27:39.984Z,97159.44
2018-02-15T23:33:13.639Z,97148.22
2018-02-15T23:35:42.068Z,97156.14
2018-02-15T23:38:10.471Z,97157.83
2018-02-15T23:40:38.824Z,97154.08
2018-02-15T23:43:07.135Z,97158.69
2018-02-15T23:45:35.475Z,97157.44
2018-02-15T23:48:03.831Z,97158.27
2018-02-15T23:50:32.959Z,97158.33
2018-02-15T23:53:02.061Z,97163.39
2018-02-15T23:55:30.350Z,97167.59
2018-02-15T23:57:58.924Z,97175.42
